sensor_id;sensor_type;location;lat;lon;timestamp;P1;durP1;ratioP1;P2;durP2;ratioP2
75760;SDS011;64373;46.136;8.830;2023-03-01T00:00:14;6.05;;;2.85;;
75760;SDS011;64373;46.136;8.830;2023-03-01T00:02:40;4.72;;;2.72;;
75760;SDS011;64373;46.136;8.830;2023-03-01T00:05:05;4.80;;;2.60;;
75760;SDS011;64373;46.136;8.830;2023-03-01T00:07:32;7.22;;;3.85;;
75760;SDS011;64373;46.136;8.830;2023-03-01T00:09:58;4.38;;;2.72;;
75760;SDS011;64373;46.136;8.830;2023-03-01T00:12:23;4.88;;;2.55;;
75760;SDS011;64373;46.136;8.830;2023-03-01T00:14:52;4.22;;;2.78;;
75760;SDS011;64373;46.136;8.830;2023-03-01T00:17:17;7.22;;;4.22;;
75760;SDS011;64373;46.136;8.830;2023-03-01T00:19:43;7.13;;;3.80;;
75760;SDS011;64373;46.136;8.830;2023-03-01T00:22:08;6.97;;;3.95;;
75760;SDS011;64373;46.136;8.830;2023-03-01T00:24:33;6.35;;;3.60;;
75760;SDS011;64373;46.136;8.830;2023-03-01T00:26:59;5.95;;;3.20;;
75760;SDS011;64373;46.136;8.830;2023-03-01T00:29:25;8.40;;;4.22;;
75760;SDS011;64373;46.136;8.830;2023-03-01T00:31:50;7.90;;;3.72;;
75760;SDS011;64373;46.136;8.830;2023-03-01T00:34:16;6.55;;;2.90;;
75760;SDS011;64373;46.136;8.830;2023-03-01T00:36:42;6.97;;;3.72;;
75760;SDS011;64373;46.136;8.830;2023-03-01T00:39:09;6.32;;;3.38;;
75760;SDS011;64373;46.136;8.830;2023-03-01T00:41:37;8.18;;;4.60;;
75760;SDS011;64373;46.136;8.830;2023-03-01T00:44:03;7.40;;;4.10;;
75760;SDS011;64373;46.136;8.830;2023-03-01T00:46:29;8.20;;;4.70;;
75760;SDS011;64373;46.136;8.830;2023-03-01T00:48:55;6.07;;;3.50;;
75760;SDS011;64373;46.136;8.830;2023-03-01T00:51:22;6.50;;;3.33;;
75760;SDS011;64373;46.136;8.830;2023-03-01T00:53:51;6.68;;;4.05;;
75760;SDS011;64373;46.136;8.830;2023-03-01T00:56:17;8.40;;;4.10;;
75760;SDS011;64373;46.136;8.830;2023-03-01T00:58:43;6.57;;;3.45;;
75760;SDS011;64373;46.136;8.830;2023-03-01T01:01:09;6.13;;;3.17;;
75760;SDS011;64373;46.136;8.830;2023-03-01T01:03:46;5.82;;;3.40;;
75760;SDS011;64373;46.136;8.830;2023-03-01T01:06:27;6.05;;;3.40;;
75760;SDS011;64373;46.136;8.830;2023-03-01T01:08:54;4.55;;;2.50;;
75760;SDS011;64373;46.136;8.830;2023-03-01T01:11:21;7.43;;;3.75;;
75760;SDS011;64373;46.136;8.830;2023-03-01T01:13:48;8.63;;;4.15;;
75760;SDS011;64373;46.136;8.830;2023-03-01T01:16:15;9.00;;;4.78;;
75760;SDS011;64373;46.136;8.830;2023-03-01T01:18:42;8.25;;;4.30;;
75760;SDS011;64373;46.136;8.830;2023-03-01T01:21:09;8.25;;;4.68;;
75760;SDS011;64373;46.136;8.830;2023-03-01T01:23:36;7.85;;;4.03;;
75760;SDS011;64373;46.136;8.830;2023-03-01T01:26:03;6.43;;;3.78;;
75760;SDS011;64373;46.136;8.830;2023-03-01T01:28:32;8.20;;;4.18;;
75760;SDS011;64373;46.136;8.830;2023-03-01T01:30:58;9.15;;;4.80;;
75760;SDS011;64373;46.136;8.830;2023-03-01T01:33:24;6.50;;;4.05;;
75760;SDS011;64373;46.136;8.830;2023-03-01T01:35:50;7.18;;;3.85;;
75760;SDS011;64373;46.136;8.830;2023-03-01T01:38:15;9.38;;;5.40;;
75760;SDS011;64373;46.136;8.830;2023-03-01T01:40:44;6.05;;;3.20;;
75760;SDS011;64373;46.136;8.830;2023-03-01T01:43:15;7.70;;;4.18;;
75760;SDS011;64373;46.136;8.830;2023-03-01T01:45:43;8.70;;;4.03;;
75760;SDS011;64373;46.136;8.830;2023-03-01T01:48:12;6.72;;;3.78;;
75760;SDS011;64373;46.136;8.830;2023-03-01T01:50:41;6.07;;;3.70;;
75760;SDS011;64373;46.136;8.830;2023-03-01T01:53:11;6.30;;;3.42;;
75760;SDS011;64373;46.136;8.830;2023-03-01T01:55:45;5.38;;;2.90;;
75760;SDS011;64373;46.136;8.830;2023-03-01T01:58:22;4.72;;;2.50;;
75760;SDS011;64373;46.136;8.830;2023-03-01T02:00:50;5.07;;;2.22;;
75760;SDS011;64373;46.136;8.830;2023-03-01T02:03:20;3.95;;;2.05;;
75760;SDS011;64373;46.136;8.830;2023-03-01T02:08:29;6.85;;;3.80;;
75760;SDS011;64373;46.136;8.830;2023-03-01T02:10:57;7.18;;;4.13;;
75760;SDS011;64373;46.136;8.830;2023-03-01T02:13:25;4.05;;;2.50;;
75760;SDS011;64373;46.136;8.830;2023-03-01T02:15:51;4.40;;;2.88;;
75760;SDS011;64373;46.136;8.830;2023-03-01T02:18:17;4.63;;;2.30;;
75760;SDS011;64373;46.136;8.830;2023-03-01T02:20:49;4.57;;;2.60;;
75760;SDS011;64373;46.136;8.830;2023-03-01T02:23:17;4.30;;;2.28;;
75760;SDS011;64373;46.136;8.830;2023-03-01T02:28:39;5.45;;;2.83;;
75760;SDS011;64373;46.136;8.830;2023-03-01T02:31:07;5.28;;;2.88;;
75760;SDS011;64373;46.136;8.830;2023-03-01T02:33:52;5.82;;;3.15;;
75760;SDS011;64373;46.136;8.830;2023-03-01T02:36:19;4.45;;;2.63;;
75760;SDS011;64373;46.136;8.830;2023-03-01T02:38:48;5.22;;;2.92;;
75760;SDS011;64373;46.136;8.830;2023-03-01T02:41:15;4.72;;;2.97;;
75760;SDS011;64373;46.136;8.830;2023-03-01T02:43:42;5.32;;;2.50;;
75760;SDS011;64373;46.136;8.830;2023-03-01T02:46:13;5.07;;;2.65;;
75760;SDS011;64373;46.136;8.830;2023-03-01T02:48:47;3.50;;;1.95;;
75760;SDS011;64373;46.136;8.830;2023-03-01T02:53:55;6.88;;;3.42;;
75760;SDS011;64373;46.136;8.830;2023-03-01T02:56:27;7.47;;;4.03;;
75760;SDS011;64373;46.136;8.830;2023-03-01T02:58:53;4.07;;;2.17;;
75760;SDS011;64373;46.136;8.830;2023-03-01T03:01:19;5.85;;;3.13;;
75760;SDS011;64373;46.136;8.830;2023-03-01T03:03:45;7.38;;;3.78;;
75760;SDS011;64373;46.136;8.830;2023-03-01T03:06:11;6.40;;;3.40;;
75760;SDS011;64373;46.136;8.830;2023-03-01T03:08:36;5.28;;;2.88;;
75760;SDS011;64373;46.136;8.830;2023-03-01T03:11:02;7.75;;;3.70;;
75760;SDS011;64373;46.136;8.830;2023-03-01T03:13:27;10.40;;;4.13;;
75760;SDS011;64373;46.136;8.830;2023-03-01T03:15:56;7.03;;;3.90;;
75760;SDS011;64373;46.136;8.830;2023-03-01T03:18:22;5.93;;;3.65;;
75760;SDS011;64373;46.136;8.830;2023-03-01T03:20:51;5.60;;;3.25;;
75760;SDS011;64373;46.136;8.830;2023-03-01T03:23:18;7.22;;;4.00;;
75760;SDS011;64373;46.136;8.830;2023-03-01T03:25:44;7.75;;;4.10;;
75760;SDS011;64373;46.136;8.830;2023-03-01T03:28:11;8.20;;;4.28;;
75760;SDS011;64373;46.136;8.830;2023-03-01T03:30:37;7.35;;;3.72;;
75760;SDS011;64373;46.136;8.830;2023-03-01T03:33:04;6.65;;;3.55;;
75760;SDS011;64373;46.136;8.830;2023-03-01T03:35:31;5.90;;;3.25;;
75760;SDS011;64373;46.136;8.830;2023-03-01T03:37:59;6.65;;;3.58;;
75760;SDS011;64373;46.136;8.830;2023-03-01T03:40:27;6.80;;;3.92;;
75760;SDS011;64373;46.136;8.830;2023-03-01T03:42:55;4.82;;;2.90;;
75760;SDS011;64373;46.136;8.830;2023-03-01T03:45:20;7.65;;;3.70;;
75760;SDS011;64373;46.136;8.830;2023-03-01T03:47:46;8.00;;;4.13;;
75760;SDS011;64373;46.136;8.830;2023-03-01T03:50:12;5.55;;;3.00;;
75760;SDS011;64373;46.136;8.830;2023-03-01T03:52:39;5.35;;;2.60;;
75760;SDS011;64373;46.136;8.830;2023-03-01T03:55:06;3.55;;;1.80;;
75760;SDS011;64373;46.136;8.830;2023-03-01T03:57:42;6.97;;;3.60;;
75760;SDS011;64373;46.136;8.830;2023-03-01T04:00:10;7.40;;;3.95;;
75760;SDS011;64373;46.136;8.830;2023-03-01T04:02:40;6.45;;;3.83;;
75760;SDS011;64373;46.136;8.830;2023-03-01T04:05:09;7.30;;;3.85;;
75760;SDS011;64373;46.136;8.830;2023-03-01T04:07:36;5.50;;;3.47;;
75760;SDS011;64373;46.136;8.830;2023-03-01T04:10:02;7.43;;;4.20;;
75760;SDS011;64373;46.136;8.830;2023-03-01T04:12:29;5.43;;;3.28;;
75760;SDS011;64373;46.136;8.830;2023-03-01T04:14:55;8.35;;;4.53;;
75760;SDS011;64373;46.136;8.830;2023-03-01T04:17:20;8.27;;;4.15;;
75760;SDS011;64373;46.136;8.830;2023-03-01T04:19:46;7.72;;;4.10;;
75760;SDS011;64373;46.136;8.830;2023-03-01T04:22:14;6.55;;;4.13;;
75760;SDS011;64373;46.136;8.830;2023-03-01T04:24:43;6.60;;;3.70;;
75760;SDS011;64373;46.136;8.830;2023-03-01T04:27:10;6.95;;;4.25;;
75760;SDS011;64373;46.136;8.830;2023-03-01T04:29:37;7.85;;;4.10;;
75760;SDS011;64373;46.136;8.830;2023-03-01T04:32:03;6.68;;;3.63;;
75760;SDS011;64373;46.136;8.830;2023-03-01T04:34:29;6.13;;;3.30;;
75760;SDS011;64373;46.136;8.830;2023-03-01T04:36:55;7.35;;;3.50;;
75760;SDS011;64373;46.136;8.830;2023-03-01T04:39:20;5.97;;;2.78;;
75760;SDS011;64373;46.136;8.830;2023-03-01T04:41:46;5.85;;;2.70;;
75760;SDS011;64373;46.136;8.830;2023-03-01T04:44:12;4.82;;;2.50;;
75760;SDS011;64373;46.136;8.830;2023-03-01T04:46:37;8.88;;;4.03;;
75760;SDS011;64373;46.136;8.830;2023-03-01T04:49:03;4.60;;;2.72;;
75760;SDS011;64373;46.136;8.830;2023-03-01T04:51:30;5.22;;;2.85;;
75760;SDS011;64373;46.136;8.830;2023-03-01T04:53:57;6.47;;;3.25;;
75760;SDS011;64373;46.136;8.830;2023-03-01T04:56:24;4.70;;;2.40;;
75760;SDS011;64373;46.136;8.830;2023-03-01T04:58:52;6.13;;;2.97;;
75760;SDS011;64373;46.136;8.830;2023-03-01T05:01:18;9.05;;;4.43;;
75760;SDS011;64373;46.136;8.830;2023-03-01T05:03:48;6.70;;;3.50;;
75760;SDS011;64373;46.136;8.830;2023-03-01T05:06:16;5.65;;;3.10;;
75760;SDS011;64373;46.136;8.830;2023-03-01T05:08:42;6.25;;;3.42;;
75760;SDS011;64373;46.136;8.830;2023-03-01T05:11:08;4.82;;;2.65;;
75760;SDS011;64373;46.136;8.830;2023-03-01T05:13:35;7.53;;;4.13;;
75760;SDS011;64373;46.136;8.830;2023-03-01T05:16:01;10.48;;;4.78;;
75760;SDS011;64373;46.136;8.830;2023-03-01T05:18:28;8.02;;;4.50;;
75760;SDS011;64373;46.136;8.830;2023-03-01T05:20:56;6.53;;;3.88;;
75760;SDS011;64373;46.136;8.830;2023-03-01T05:23:29;6.22;;;3.38;;
75760;SDS011;64373;46.136;8.830;2023-03-01T05:25:58;5.47;;;3.00;;
75760;SDS011;64373;46.136;8.830;2023-03-01T05:28:25;6.35;;;3.92;;
75760;SDS011;64373;46.136;8.830;2023-03-01T05:30:51;10.10;;;4.80;;
75760;SDS011;64373;46.136;8.830;2023-03-01T05:33:17;5.75;;;3.30;;
75760;SDS011;64373;46.136;8.830;2023-03-01T05:35:44;6.75;;;3.17;;
75760;SDS011;64373;46.136;8.830;2023-03-01T05:38:10;6.43;;;3.47;;
75760;SDS011;64373;46.136;8.830;2023-03-01T05:40:43;7.60;;;3.97;;
75760;SDS011;64373;46.136;8.830;2023-03-01T05:43:11;6.15;;;3.50;;
75760;SDS011;64373;46.136;8.830;2023-03-01T05:45:37;6.72;;;3.58;;
75760;SDS011;64373;46.136;8.830;2023-03-01T05:48:04;6.15;;;3.22;;
75760;SDS011;64373;46.136;8.830;2023-03-01T05:50:32;4.45;;;2.63;;
75760;SDS011;64373;46.136;8.830;2023-03-01T05:53:03;4.45;;;2.28;;
75760;SDS011;64373;46.136;8.830;2023-03-01T05:55:34;4.10;;;2.08;;
75760;SDS011;64373;46.136;8.830;2023-03-01T05:58:01;6.28;;;2.90;;
75760;SDS011;64373;46.136;8.830;2023-03-01T06:00:28;4.10;;;2.35;;
75760;SDS011;64373;46.136;8.830;2023-03-01T06:02:55;3.50;;;1.88;;
75760;SDS011;64373;46.136;8.830;2023-03-01T06:05:21;7.05;;;3.65;;
75760;SDS011;64373;46.136;8.830;2023-03-01T06:07:47;5.97;;;3.30;;
75760;SDS011;64373;46.136;8.830;2023-03-01T06:10:13;5.75;;;2.85;;
75760;SDS011;64373;46.136;8.830;2023-03-01T06:12:39;4.15;;;2.33;;
75760;SDS011;64373;46.136;8.830;2023-03-01T06:15:06;6.60;;;3.50;;
75760;SDS011;64373;46.136;8.830;2023-03-01T06:17:36;5.70;;;3.22;;
75760;SDS011;64373;46.136;8.830;2023-03-01T06:20:07;7.00;;;4.40;;
75760;SDS011;64373;46.136;8.830;2023-03-01T06:22:35;6.55;;;3.58;;
75760;SDS011;64373;46.136;8.830;2023-03-01T06:25:01;6.18;;;3.70;;
75760;SDS011;64373;46.136;8.830;2023-03-01T06:27:26;6.55;;;3.30;;
75760;SDS011;64373;46.136;8.830;2023-03-01T06:29:52;6.00;;;3.13;;
75760;SDS011;64373;46.136;8.830;2023-03-01T06:32:17;3.78;;;2.33;;
75760;SDS011;64373;46.136;8.830;2023-03-01T06:34:43;6.90;;;3.92;;
75760;SDS011;64373;46.136;8.830;2023-03-01T06:37:09;4.38;;;2.83;;
75760;SDS011;64373;46.136;8.830;2023-03-01T06:39:34;3.55;;;2.30;;
75760;SDS011;64373;46.136;8.830;2023-03-01T06:42:00;3.85;;;1.95;;
75760;SDS011;64373;46.136;8.830;2023-03-01T06:44:26;4.28;;;2.40;;
75760;SDS011;64373;46.136;8.830;2023-03-01T06:46:52;4.47;;;2.95;;
75760;SDS011;64373;46.136;8.830;2023-03-01T06:49:17;3.83;;;2.03;;
75760;SDS011;64373;46.136;8.830;2023-03-01T06:51:43;3.20;;;2.03;;
75760;SDS011;64373;46.136;8.830;2023-03-01T06:54:09;2.47;;;1.40;;
75760;SDS011;64373;46.136;8.830;2023-03-01T06:56:34;3.10;;;1.60;;
75760;SDS011;64373;46.136;8.830;2023-03-01T06:59:00;3.70;;;1.95;;
75760;SDS011;64373;46.136;8.830;2023-03-01T07:01:26;3.97;;;2.38;;
75760;SDS011;64373;46.136;8.830;2023-03-01T07:03:51;3.45;;;1.88;;
75760;SDS011;64373;46.136;8.830;2023-03-01T07:06:17;5.55;;;2.60;;
75760;SDS011;64373;46.136;8.830;2023-03-01T07:08:42;2.67;;;1.55;;
75760;SDS011;64373;46.136;8.830;2023-03-01T07:11:08;4.25;;;2.20;;
75760;SDS011;64373;46.136;8.830;2023-03-01T07:13:34;3.38;;;1.88;;
75760;SDS011;64373;46.136;8.830;2023-03-01T07:15:59;2.70;;;1.45;;
75760;SDS011;64373;46.136;8.830;2023-03-01T07:18:25;3.03;;;1.90;;
75760;SDS011;64373;46.136;8.830;2023-03-01T07:20:51;4.20;;;2.28;;
75760;SDS011;64373;46.136;8.830;2023-03-01T07:23:16;3.90;;;2.10;;
75760;SDS011;64373;46.136;8.830;2023-03-01T07:25:42;1.67;;;1.13;;
75760;SDS011;64373;46.136;8.830;2023-03-01T07:28:07;2.20;;;1.33;;
75760;SDS011;64373;46.136;8.830;2023-03-01T07:30:33;1.90;;;1.42;;
75760;SDS011;64373;46.136;8.830;2023-03-01T07:32:58;2.63;;;1.40;;
75760;SDS011;64373;46.136;8.830;2023-03-01T07:35:25;2.08;;;1.27;;
75760;SDS011;64373;46.136;8.830;2023-03-01T07:37:51;2.42;;;1.52;;
75760;SDS011;64373;46.136;8.830;2023-03-01T07:40:17;2.08;;;1.30;;
75760;SDS011;64373;46.136;8.830;2023-03-01T07:42:42;2.22;;;1.20;;
75760;SDS011;64373;46.136;8.830;2023-03-01T07:45:08;2.13;;;1.13;;
75760;SDS011;64373;46.136;8.830;2023-03-01T07:47:34;6.43;;;3.42;;
75760;SDS011;64373;46.136;8.830;2023-03-01T07:49:59;5.32;;;2.90;;
75760;SDS011;64373;46.136;8.830;2023-03-01T07:52:26;4.28;;;2.22;;
75760;SDS011;64373;46.136;8.830;2023-03-01T07:54:51;3.17;;;2.05;;
75760;SDS011;64373;46.136;8.830;2023-03-01T07:57:17;2.10;;;1.60;;
75760;SDS011;64373;46.136;8.830;2023-03-01T07:59:43;2.10;;;1.23;;
75760;SDS011;64373;46.136;8.830;2023-03-01T08:02:09;2.15;;;1.35;;
75760;SDS011;64373;46.136;8.830;2023-03-01T08:04:35;2.60;;;1.42;;
75760;SDS011;64373;46.136;8.830;2023-03-01T08:07:01;2.00;;;1.05;;
75760;SDS011;64373;46.136;8.830;2023-03-01T08:09:29;1.83;;;1.17;;
75760;SDS011;64373;46.136;8.830;2023-03-01T08:11:55;2.35;;;1.20;;
75760;SDS011;64373;46.136;8.830;2023-03-01T08:14:21;1.52;;;0.80;;
75760;SDS011;64373;46.136;8.830;2023-03-01T08:16:48;2.03;;;0.95;;
75760;SDS011;64373;46.136;8.830;2023-03-01T08:19:14;1.45;;;0.88;;
75760;SDS011;64373;46.136;8.830;2023-03-01T08:21:40;1.33;;;0.90;;
75760;SDS011;64373;46.136;8.830;2023-03-01T08:24:06;1.85;;;1.02;;
75760;SDS011;64373;46.136;8.830;2023-03-01T08:26:32;1.92;;;1.10;;
75760;SDS011;64373;46.136;8.830;2023-03-01T08:28:59;1.85;;;0.88;;
75760;SDS011;64373;46.136;8.830;2023-03-01T08:31:26;1.55;;;0.95;;
75760;SDS011;64373;46.136;8.830;2023-03-01T08:33:54;1.58;;;0.90;;
75760;SDS011;64373;46.136;8.830;2023-03-01T08:36:23;3.25;;;2.08;;
75760;SDS011;64373;46.136;8.830;2023-03-01T08:38:49;2.50;;;1.58;;
75760;SDS011;64373;46.136;8.830;2023-03-01T08:41:15;3.22;;;2.00;;
75760;SDS011;64373;46.136;8.830;2023-03-01T08:43:41;2.80;;;1.73;;
75760;SDS011;64373;46.136;8.830;2023-03-01T08:46:06;2.75;;;1.73;;
75760;SDS011;64373;46.136;8.830;2023-03-01T08:48:32;1.92;;;1.20;;
75760;SDS011;64373;46.136;8.830;2023-03-01T08:51:06;1.15;;;0.88;;
75760;SDS011;64373;46.136;8.830;2023-03-01T08:53:33;2.05;;;0.90;;
75760;SDS011;64373;46.136;8.830;2023-03-01T08:56:01;2.90;;;1.38;;
75760;SDS011;64373;46.136;8.830;2023-03-01T08:58:27;2.33;;;1.38;;
75760;SDS011;64373;46.136;8.830;2023-03-01T09:00:53;2.03;;;1.17;;
75760;SDS011;64373;46.136;8.830;2023-03-01T09:03:21;1.50;;;1.20;;
75760;SDS011;64373;46.136;8.830;2023-03-01T09:05:47;3.03;;;1.73;;
75760;SDS011;64373;46.136;8.830;2023-03-01T09:08:16;3.15;;;1.80;;
75760;SDS011;64373;46.136;8.830;2023-03-01T09:10:42;1.98;;;1.20;;
75760;SDS011;64373;46.136;8.830;2023-03-01T09:13:08;1.27;;;0.88;;
75760;SDS011;64373;46.136;8.830;2023-03-01T09:15:33;1.17;;;0.82;;
75760;SDS011;64373;46.136;8.830;2023-03-01T09:17:59;2.55;;;1.08;;
75760;SDS011;64373;46.136;8.830;2023-03-01T09:20:25;2.40;;;1.63;;
75760;SDS011;64373;46.136;8.830;2023-03-01T09:22:50;1.45;;;0.88;;
75760;SDS011;64373;46.136;8.830;2023-03-01T09:25:16;0.70;;;0.70;;
75760;SDS011;64373;46.136;8.830;2023-03-01T09:27:41;2.42;;;1.40;;
75760;SDS011;64373;46.136;8.830;2023-03-01T09:30:07;2.00;;;1.25;;
75760;SDS011;64373;46.136;8.830;2023-03-01T09:32:33;1.58;;;1.02;;
75760;SDS011;64373;46.136;8.830;2023-03-01T09:34:58;2.58;;;1.80;;
75760;SDS011;64373;46.136;8.830;2023-03-01T09:37:30;2.00;;;1.10;;
75760;SDS011;64373;46.136;8.830;2023-03-01T09:39:59;1.15;;;0.82;;
75760;SDS011;64373;46.136;8.830;2023-03-01T09:42:25;0.52;;;0.50;;
75760;SDS011;64373;46.136;8.830;2023-03-01T09:45:07;1.45;;;0.60;;
75760;SDS011;64373;46.136;8.830;2023-03-01T09:47:37;0.60;;;0.30;;
75760;SDS011;64373;46.136;8.830;2023-03-01T09:52:47;1.00;;;0.57;;
75760;SDS011;64373;46.136;8.830;2023-03-01T09:58:27;1.48;;;0.73;;
75760;SDS011;64373;46.136;8.830;2023-03-01T10:01:32;1.35;;;0.95;;
75760;SDS011;64373;46.136;8.830;2023-03-01T10:04:12;0.82;;;0.50;;
75760;SDS011;64373;46.136;8.830;2023-03-01T10:09:36;2.83;;;1.45;;
75760;SDS011;64373;46.136;8.830;2023-03-01T10:12:04;2.38;;;1.60;;
75760;SDS011;64373;46.136;8.830;2023-03-01T10:14:39;2.05;;;1.27;;
75760;SDS011;64373;46.136;8.830;2023-03-01T10:19:52;3.47;;;1.60;;
75760;SDS011;64373;46.136;8.830;2023-03-01T10:22:22;1.90;;;1.00;;
75760;SDS011;64373;46.136;8.830;2023-03-01T10:24:53;2.17;;;0.90;;
75760;SDS011;64373;46.136;8.830;2023-03-01T10:32:37;3.15;;;1.77;;
75760;SDS011;64373;46.136;8.830;2023-03-01T10:40:31;4.07;;;2.58;;
75760;SDS011;64373;46.136;8.830;2023-03-01T10:42:58;3.92;;;2.10;;
75760;SDS011;64373;46.136;8.830;2023-03-01T10:45:32;2.60;;;1.50;;
75760;SDS011;64373;46.136;8.830;2023-03-01T10:50:40;2.28;;;1.40;;
75760;SDS011;64373;46.136;8.830;2023-03-01T10:56:08;2.03;;;1.50;;
75760;SDS011;64373;46.136;8.830;2023-03-01T10:58:35;4.93;;;2.28;;
75760;SDS011;64373;46.136;8.830;2023-03-01T11:01:06;4.68;;;2.90;;
75760;SDS011;64373;46.136;8.830;2023-03-01T11:06:36;6.57;;;3.45;;
75760;SDS011;64373;46.136;8.830;2023-03-01T11:11:42;6.20;;;3.50;;
75760;SDS011;64373;46.136;8.830;2023-03-01T11:19:28;5.20;;;3.00;;
75760;SDS011;64373;46.136;8.830;2023-03-01T11:24:19;4.90;;;2.80;;
75760;SDS011;64373;46.136;8.830;2023-03-01T11:26:53;4.55;;;2.85;;
75760;SDS011;64373;46.136;8.830;2023-03-01T11:29:31;5.82;;;3.33;;
75760;SDS011;64373;46.136;8.830;2023-03-01T11:32:03;5.50;;;3.08;;
75760;SDS011;64373;46.136;8.830;2023-03-01T11:34:37;4.22;;;2.75;;
75760;SDS011;64373;46.136;8.830;2023-03-01T11:37:15;4.78;;;2.50;;
75760;SDS011;64373;46.136;8.830;2023-03-01T11:48:37;6.50;;;2.80;;
75760;SDS011;64373;46.136;8.830;2023-03-01T11:51:05;5.45;;;2.50;;
75760;SDS011;64373;46.136;8.830;2023-03-01T11:56:47;4.30;;;2.80;;
75760;SDS011;64373;46.136;8.830;2023-03-01T12:04:36;4.80;;;3.03;;
75760;SDS011;64373;46.136;8.830;2023-03-01T12:07:39;6.35;;;3.33;;
75760;SDS011;64373;46.136;8.830;2023-03-01T12:15:52;8.65;;;4.15;;
75760;SDS011;64373;46.136;8.830;2023-03-01T12:21:42;9.52;;;4.90;;
75760;SDS011;64373;46.136;8.830;2023-03-01T12:30:23;5.72;;;3.38;;
75760;SDS011;64373;46.136;8.830;2023-03-01T12:38:37;4.22;;;2.80;;
75760;SDS011;64373;46.136;8.830;2023-03-01T12:47:35;4.13;;;2.00;;
75760;SDS011;64373;46.136;8.830;2023-03-01T12:50:19;5.13;;;2.42;;
75760;SDS011;64373;46.136;8.830;2023-03-01T12:52:48;4.72;;;2.20;;
75760;SDS011;64373;46.136;8.830;2023-03-01T12:55:27;4.22;;;2.50;;
75760;SDS011;64373;46.136;8.830;2023-03-01T12:58:07;4.10;;;2.10;;
75760;SDS011;64373;46.136;8.830;2023-03-01T13:00:59;3.20;;;1.52;;
75760;SDS011;64373;46.136;8.830;2023-03-01T13:03:31;3.92;;;2.30;;
75760;SDS011;64373;46.136;8.830;2023-03-01T13:06:25;4.82;;;2.85;;
75760;SDS011;64373;46.136;8.830;2023-03-01T13:09:10;4.55;;;2.75;;
75760;SDS011;64373;46.136;8.830;2023-03-01T13:11:42;4.18;;;2.75;;
75760;SDS011;64373;46.136;8.830;2023-03-01T13:16:45;4.07;;;2.15;;
75760;SDS011;64373;46.136;8.830;2023-03-01T13:19:17;5.30;;;2.60;;
75760;SDS011;64373;46.136;8.830;2023-03-01T13:21:44;2.70;;;1.95;;
75760;SDS011;64373;46.136;8.830;2023-03-01T13:29:48;5.72;;;2.95;;
75760;SDS011;64373;46.136;8.830;2023-03-01T13:32:19;5.22;;;3.03;;
75760;SDS011;64373;46.136;8.830;2023-03-01T13:34:47;4.07;;;2.20;;
75760;SDS011;64373;46.136;8.830;2023-03-01T13:37:35;3.83;;;2.00;;
75760;SDS011;64373;46.136;8.830;2023-03-01T13:40:04;3.80;;;2.90;;
75760;SDS011;64373;46.136;8.830;2023-03-01T13:42:54;4.80;;;2.95;;
75760;SDS011;64373;46.136;8.830;2023-03-01T13:45:21;5.57;;;3.33;;
75760;SDS011;64373;46.136;8.830;2023-03-01T13:50:53;5.85;;;3.35;;
75760;SDS011;64373;46.136;8.830;2023-03-01T13:53:24;10.63;;;3.92;;
75760;SDS011;64373;46.136;8.830;2023-03-01T13:58:24;9.20;;;4.07;;
75760;SDS011;64373;46.136;8.830;2023-03-01T14:01:34;5.88;;;3.15;;
75760;SDS011;64373;46.136;8.830;2023-03-01T14:03:48;9.05;;;5.30;;
75760;SDS011;64373;46.136;8.830;2023-03-01T14:06:15;9.77;;;4.72;;
75760;SDS011;64373;46.136;8.830;2023-03-01T14:08:43;9.57;;;5.13;;
75760;SDS011;64373;46.136;8.830;2023-03-01T14:19:32;6.50;;;3.40;;
75760;SDS011;64373;46.136;8.830;2023-03-01T14:21:59;4.78;;;2.90;;
75760;SDS011;64373;46.136;8.830;2023-03-01T14:24:49;11.07;;;6.13;;
75760;SDS011;64373;46.136;8.830;2023-03-01T14:27:15;9.80;;;5.30;;
75760;SDS011;64373;46.136;8.830;2023-03-01T14:29:42;10.60;;;5.78;;
75760;SDS011;64373;46.136;8.830;2023-03-01T14:32:08;7.75;;;4.50;;
75760;SDS011;64373;46.136;8.830;2023-03-01T14:34:42;9.90;;;5.53;;
75760;SDS011;64373;46.136;8.830;2023-03-01T14:39:46;11.38;;;6.20;;
75760;SDS011;64373;46.136;8.830;2023-03-01T14:42:12;14.00;;;7.80;;
75760;SDS011;64373;46.136;8.830;2023-03-01T14:44:40;13.50;;;6.80;;
75760;SDS011;64373;46.136;8.830;2023-03-01T14:47:10;11.27;;;6.75;;
75760;SDS011;64373;46.136;8.830;2023-03-01T14:49:40;14.10;;;7.75;;
75760;SDS011;64373;46.136;8.830;2023-03-01T14:52:07;13.52;;;7.55;;
75760;SDS011;64373;46.136;8.830;2023-03-01T14:54:43;13.90;;;7.47;;
75760;SDS011;64373;46.136;8.830;2023-03-01T14:57:19;15.35;;;8.30;;
75760;SDS011;64373;46.136;8.830;2023-03-01T14:59:52;10.82;;;6.68;;
75760;SDS011;64373;46.136;8.830;2023-03-01T15:02:24;14.85;;;7.88;;
75760;SDS011;64373;46.136;8.830;2023-03-01T15:05:13;12.55;;;6.65;;
75760;SDS011;64373;46.136;8.830;2023-03-01T15:07:39;13.23;;;7.70;;
75760;SDS011;64373;46.136;8.830;2023-03-01T15:10:06;15.25;;;7.97;;
75760;SDS011;64373;46.136;8.830;2023-03-01T15:12:40;15.27;;;7.80;;
75760;SDS011;64373;46.136;8.830;2023-03-01T15:17:53;14.20;;;7.18;;
75760;SDS011;64373;46.136;8.830;2023-03-01T15:22:46;12.27;;;6.38;;
75760;SDS011;64373;46.136;8.830;2023-03-01T15:25:21;16.13;;;8.60;;
75760;SDS011;64373;46.136;8.830;2023-03-01T15:27:50;13.02;;;6.10;;
75760;SDS011;64373;46.136;8.830;2023-03-01T15:30:37;13.60;;;7.55;;
75760;SDS011;64373;46.136;8.830;2023-03-01T15:33:19;14.30;;;7.45;;
75760;SDS011;64373;46.136;8.830;2023-03-01T15:35:45;12.35;;;6.80;;
75760;SDS011;64373;46.136;8.830;2023-03-01T15:40:50;8.27;;;4.60;;
75760;SDS011;64373;46.136;8.830;2023-03-01T15:46:16;6.80;;;3.95;;
75760;SDS011;64373;46.136;8.830;2023-03-01T15:48:44;8.73;;;5.18;;
75760;SDS011;64373;46.136;8.830;2023-03-01T15:51:11;15.50;;;7.57;;
75760;SDS011;64373;46.136;8.830;2023-03-01T15:53:39;13.43;;;7.85;;
75760;SDS011;64373;46.136;8.830;2023-03-01T15:56:05;12.85;;;7.22;;
75760;SDS011;64373;46.136;8.830;2023-03-01T15:58:32;15.38;;;8.30;;
75760;SDS011;64373;46.136;8.830;2023-03-01T16:00:58;19.52;;;8.40;;
75760;SDS011;64373;46.136;8.830;2023-03-01T16:03:24;13.50;;;7.07;;
75760;SDS011;64373;46.136;8.830;2023-03-01T16:05:49;9.43;;;5.38;;
75760;SDS011;64373;46.136;8.830;2023-03-01T16:08:16;9.25;;;5.28;;
75760;SDS011;64373;46.136;8.830;2023-03-01T16:10:42;9.88;;;4.90;;
75760;SDS011;64373;46.136;8.830;2023-03-01T16:13:11;6.50;;;3.40;;
75760;SDS011;64373;46.136;8.830;2023-03-01T16:15:37;7.60;;;4.00;;
75760;SDS011;64373;46.136;8.830;2023-03-01T16:18:04;5.75;;;2.72;;
75760;SDS011;64373;46.136;8.830;2023-03-01T16:20:35;3.75;;;2.13;;
75760;SDS011;64373;46.136;8.830;2023-03-01T16:23:02;4.75;;;2.13;;
75760;SDS011;64373;46.136;8.830;2023-03-01T16:25:29;3.45;;;2.00;;
75760;SDS011;64373;46.136;8.830;2023-03-01T16:27:55;2.30;;;1.45;;
75760;SDS011;64373;46.136;8.830;2023-03-01T16:30:23;3.03;;;1.77;;
75760;SDS011;64373;46.136;8.830;2023-03-01T16:32:49;2.55;;;1.70;;
75760;SDS011;64373;46.136;8.830;2023-03-01T16:35:19;3.53;;;1.90;;
75760;SDS011;64373;46.136;8.830;2023-03-01T16:37:45;4.95;;;2.45;;
75760;SDS011;64373;46.136;8.830;2023-03-01T16:40:22;12.10;;;6.32;;
75760;SDS011;64373;46.136;8.830;2023-03-01T16:42:50;13.57;;;7.70;;
75760;SDS011;64373;46.136;8.830;2023-03-01T16:45:16;10.10;;;5.38;;
75760;SDS011;64373;46.136;8.830;2023-03-01T16:47:43;8.50;;;5.00;;
75760;SDS011;64373;46.136;8.830;2023-03-01T16:50:09;10.68;;;6.63;;
75760;SDS011;64373;46.136;8.830;2023-03-01T16:52:35;11.80;;;6.15;;
75760;SDS011;64373;46.136;8.830;2023-03-01T16:55:02;7.35;;;4.32;;
75760;SDS011;64373;46.136;8.830;2023-03-01T16:57:29;6.72;;;4.28;;
75760;SDS011;64373;46.136;8.830;2023-03-01T16:59:55;9.60;;;4.57;;
75760;SDS011;64373;46.136;8.830;2023-03-01T17:02:20;7.68;;;4.05;;